SBI1074 UWWW-UUDD
Flight info
| Callsign | SBI1074 |
|---|---|
| Flight time | 1h 18m |
| Altitude | 36000 |
| Route | N0450F340 ABDIS T759 TIRET T784 OTKOL T787 URAGO |
| Aircraft | A320/M-VGDW/C |
Departure
| Time | 2026-05-05 17:44 |
|---|---|
| Airport | Kurumoch International Airport (UWWW) |
Arrival
| Time | 2026-05-05 19:03 |
|---|---|
| Airport | Domodedovo International Airport (UUDD) |
| Time | Latitude | Longitude | Altitude | Speed | Heading |
|---|---|---|---|---|---|
| 2026-05-05 17:08 | 53.51158 | 50.15874 | 447 ft | 0 kts | 332° |
| 2026-05-05 17:23 | 53.51157 | 50.15874 | 419 ft | 0 kts | 332° |
| 2026-05-05 17:34 | 53.51157 | 50.15875 | 419 ft | 1 kts | 332° |
| 2026-05-05 17:34 | 53.51140 | 50.15890 | 447 ft | 3 kts | 332° |
| 2026-05-05 17:35 | 53.51124 | 50.15905 | 447 ft | 1 kts | 332° |
| 2026-05-05 17:35 | 53.51109 | 50.15921 | 447 ft | 3 kts | 309° |
| 2026-05-05 17:35 | 53.51096 | 50.15947 | 447 ft | 2 kts | 314° |
| 2026-05-05 17:35 | 53.51084 | 50.15967 | 447 ft | 3 kts | 320° |
| 2026-05-05 17:36 | 53.51068 | 50.15988 | 447 ft | 3 kts | 328° |
| 2026-05-05 17:36 | 53.51051 | 50.16004 | 447 ft | 3 kts | 333° |
| 2026-05-05 17:36 | 53.51041 | 50.16013 | 447 ft | 0 kts | 331° |
| 2026-05-05 17:40 | 53.51064 | 50.15992 | 447 ft | 9 kts | 332° |
| 2026-05-05 17:41 | 53.51111 | 50.16021 | 447 ft | 7 kts | 55° |
| 2026-05-05 17:41 | 53.51135 | 50.16086 | 447 ft | 6 kts | 62° |
| 2026-05-05 17:41 | 53.51153 | 50.16143 | 447 ft | 6 kts | 62° |
| 2026-05-05 17:41 | 53.51200 | 50.16288 | 447 ft | 19 kts | 61° |
| 2026-05-05 17:42 | 53.51264 | 50.16487 | 447 ft | 20 kts | 61° |
| 2026-05-05 17:42 | 53.51330 | 50.16692 | 447 ft | 18 kts | 62° |
| 2026-05-05 17:42 | 53.51374 | 50.16826 | 447 ft | 11 kts | 61° |
| 2026-05-05 17:42 | 53.51409 | 50.16934 | 447 ft | 9 kts | 62° |
| 2026-05-05 17:43 | 53.51438 | 50.17024 | 449 ft | 11 kts | 62° |
| 2026-05-05 17:43 | 53.51418 | 50.17107 | 449 ft | 8 kts | 159° |
| 2026-05-05 17:43 | 53.51395 | 50.17122 | 449 ft | 2 kts | 159° |
| 2026-05-05 17:43 | 53.51312 | 50.17172 | 449 ft | 43 kts | 160° |
| 2026-05-05 17:44 | 53.50788 | 50.17483 | 435 ft | 113 kts | 160° |
| 2026-05-05 17:44 | 53.49872 | 50.18022 | 490 ft | 159 kts | 161° |
| 2026-05-05 17:44 | 53.48850 | 50.18645 | 1150 ft | 156 kts | 161° |
| 2026-05-05 17:44 | 53.47818 | 50.19262 | 1773 ft | 159 kts | 162° |
| 2026-05-05 17:45 | 53.46773 | 50.19884 | 2398 ft | 159 kts | 162° |
| 2026-05-05 17:45 | 53.45732 | 50.20507 | 3014 ft | 158 kts | 162° |
| 2026-05-05 17:45 | 53.44699 | 50.21128 | 3607 ft | 158 kts | 162° |
| 2026-05-05 17:45 | 53.43609 | 50.21777 | 3964 ft | 176 kts | 162° |
| 2026-05-05 17:46 | 53.42380 | 50.22503 | 4227 ft | 198 kts | 162° |
| 2026-05-05 17:46 | 53.40956 | 50.22759 | 4532 ft | 214 kts | 197° |
| 2026-05-05 17:46 | 53.39760 | 50.21320 | 4975 ft | 226 kts | 235° |
| 2026-05-05 17:46 | 53.38994 | 50.18809 | 5309 ft | 252 kts | 248° |
| 2026-05-05 17:47 | 53.38392 | 50.15927 | 5878 ft | 269 kts | 252° |
| 2026-05-05 17:47 | 53.37829 | 50.12904 | 6695 ft | 275 kts | 252° |
| 2026-05-05 17:47 | 53.37255 | 50.09820 | 7538 ft | 280 kts | 252° |
| 2026-05-05 17:47 | 53.36652 | 50.06699 | 8384 ft | 284 kts | 252° |
| 2026-05-05 17:48 | 53.36015 | 50.03541 | 9236 ft | 289 kts | 251° |
| 2026-05-05 17:48 | 53.35347 | 50.00344 | 10060 ft | 293 kts | 251° |
| 2026-05-05 17:48 | 53.34635 | 49.97016 | 10434 ft | 315 kts | 251° |
| 2026-05-05 17:48 | 53.33863 | 49.93440 | 10692 ft | 338 kts | 250° |
| 2026-05-05 17:49 | 53.33053 | 49.89676 | 11270 ft | 347 kts | 252° |
| 2026-05-05 17:49 | 53.32531 | 49.85719 | 11984 ft | 352 kts | 264° |
| 2026-05-05 17:49 | 53.32518 | 49.81612 | 12729 ft | 355 kts | 277° |
| 2026-05-05 17:49 | 53.33029 | 49.77568 | 13478 ft | 358 kts | 288° |
| 2026-05-05 17:50 | 53.33747 | 49.73558 | 14164 ft | 361 kts | 287° |
| 2026-05-05 17:50 | 53.34465 | 49.69509 | 14831 ft | 364 kts | 287° |
| 2026-05-05 17:50 | 53.35182 | 49.65427 | 15512 ft | 367 kts | 287° |
| 2026-05-05 17:50 | 53.35899 | 49.61309 | 16192 ft | 369 kts | 287° |
| 2026-05-05 17:51 | 53.36616 | 49.57167 | 16865 ft | 372 kts | 287° |
| 2026-05-05 17:51 | 53.37336 | 49.52985 | 17527 ft | 375 kts | 287° |
| 2026-05-05 17:51 | 53.38061 | 49.48771 | 18198 ft | 378 kts | 287° |
| 2026-05-05 17:51 | 53.38788 | 49.44536 | 18775 ft | 381 kts | 287° |
| 2026-05-05 17:52 | 53.39524 | 49.40243 | 19349 ft | 383 kts | 287° |
| 2026-05-05 17:52 | 53.40260 | 49.35936 | 19930 ft | 386 kts | 287° |
| 2026-05-05 17:52 | 53.41001 | 49.31594 | 20513 ft | 389 kts | 287° |
| 2026-05-05 17:52 | 53.41746 | 49.27215 | 21080 ft | 392 kts | 287° |
| 2026-05-05 17:53 | 53.42495 | 49.22804 | 21646 ft | 395 kts | 288° |
| 2026-05-05 17:53 | 53.43246 | 49.18362 | 22196 ft | 398 kts | 288° |
| 2026-05-05 17:53 | 53.44003 | 49.13885 | 22734 ft | 401 kts | 288° |
| 2026-05-05 17:53 | 53.44767 | 49.09369 | 23263 ft | 403 kts | 288° |
| 2026-05-05 17:54 | 53.45534 | 49.04828 | 23737 ft | 406 kts | 288° |
| 2026-05-05 17:54 | 53.46313 | 49.00202 | 24168 ft | 408 kts | 288° |
| 2026-05-05 17:54 | 53.47034 | 48.95578 | 24581 ft | 411 kts | 283° |
| 2026-05-05 17:54 | 53.47353 | 48.90785 | 24987 ft | 416 kts | 273° |
| 2026-05-05 17:55 | 53.47389 | 48.85917 | 25378 ft | 418 kts | 272° |
| 2026-05-05 17:55 | 53.47423 | 48.81030 | 25768 ft | 420 kts | 272° |
| 2026-05-05 17:55 | 53.47457 | 48.76107 | 26168 ft | 422 kts | 272° |
| 2026-05-05 17:55 | 53.47493 | 48.71169 | 26548 ft | 424 kts | 272° |
| 2026-05-05 17:56 | 53.47532 | 48.66206 | 26922 ft | 427 kts | 272° |
| 2026-05-05 17:56 | 53.47571 | 48.61212 | 27283 ft | 429 kts | 272° |
| 2026-05-05 17:56 | 53.47608 | 48.56200 | 27649 ft | 431 kts | 271° |
| 2026-05-05 17:56 | 53.47642 | 48.51151 | 27991 ft | 433 kts | 271° |
| 2026-05-05 17:57 | 53.47674 | 48.46085 | 28327 ft | 435 kts | 271° |
| 2026-05-05 17:57 | 53.47701 | 48.40993 | 28662 ft | 438 kts | 271° |
| 2026-05-05 17:57 | 53.47729 | 48.35876 | 28984 ft | 440 kts | 271° |
| 2026-05-05 17:57 | 53.47752 | 48.30733 | 29295 ft | 442 kts | 271° |
| 2026-05-05 17:58 | 53.47772 | 48.25563 | 29604 ft | 443 kts | 270° |
| 2026-05-05 17:58 | 53.47788 | 48.20378 | 29902 ft | 445 kts | 270° |
| 2026-05-05 17:58 | 53.47801 | 48.15171 | 30160 ft | 447 kts | 270° |
| 2026-05-05 17:58 | 53.47815 | 48.09946 | 30402 ft | 448 kts | 270° |
| 2026-05-05 17:59 | 53.47826 | 48.04704 | 30641 ft | 449 kts | 270° |
| 2026-05-05 17:59 | 53.47835 | 47.99464 | 30916 ft | 449 kts | 270° |
| 2026-05-05 17:59 | 53.47842 | 47.94228 | 31253 ft | 447 kts | 270° |
| 2026-05-05 17:59 | 53.47844 | 47.89017 | 31593 ft | 446 kts | 270° |
| 2026-05-05 18:00 | 53.47843 | 47.83828 | 31922 ft | 444 kts | 270° |
| 2026-05-05 18:00 | 53.47967 | 47.78652 | 32257 ft | 443 kts | 277° |
| 2026-05-05 18:00 | 53.48588 | 47.73603 | 32590 ft | 442 kts | 287° |
| 2026-05-05 18:00 | 53.49304 | 47.70331 | 32810 ft | 442 kts | 293° |
| 2026-05-05 18:01 | 53.50778 | 47.65804 | 33133 ft | 442 kts | 303° |
| 2026-05-05 18:01 | 53.52700 | 47.61773 | 33456 ft | 443 kts | 313° |
| 2026-05-05 18:01 | 53.54906 | 47.58156 | 33768 ft | 442 kts | 314° |
| 2026-05-05 18:01 | 53.57111 | 47.54563 | 34054 ft | 442 kts | 314° |
| 2026-05-05 18:02 | 53.59311 | 47.50955 | 34325 ft | 441 kts | 314° |
| 2026-05-05 18:02 | 53.61503 | 47.47346 | 34578 ft | 441 kts | 314° |
| 2026-05-05 18:02 | 53.63696 | 47.43731 | 34822 ft | 441 kts | 314° |
| 2026-05-05 18:02 | 53.65884 | 47.40124 | 35063 ft | 440 kts | 314° |
| 2026-05-05 18:03 | 53.68073 | 47.36511 | 35295 ft | 440 kts | 314° |
| 2026-05-05 18:03 | 53.70256 | 47.32904 | 35521 ft | 440 kts | 314° |
| 2026-05-05 18:03 | 53.72444 | 47.29291 | 35749 ft | 440 kts | 314° |
| 2026-05-05 18:03 | 53.74631 | 47.25671 | 35895 ft | 440 kts | 314° |
| 2026-05-05 18:04 | 53.76808 | 47.22055 | 35920 ft | 439 kts | 314° |
| 2026-05-05 18:04 | 53.81151 | 47.14814 | 35917 ft | 438 kts | 314° |
| 2026-05-05 18:05 | 53.85483 | 47.07574 | 35914 ft | 438 kts | 314° |
| 2026-05-05 18:05 | 53.89818 | 47.00326 | 35917 ft | 437 kts | 314° |
| 2026-05-05 18:06 | 53.94143 | 46.93072 | 35919 ft | 437 kts | 314° |
| 2026-05-05 18:06 | 53.98456 | 46.85809 | 35921 ft | 437 kts | 313° |
| 2026-05-05 18:07 | 54.02765 | 46.78517 | 35923 ft | 437 kts | 313° |
| 2026-05-05 18:07 | 54.07067 | 46.71223 | 35927 ft | 436 kts | 313° |
| 2026-05-05 18:08 | 54.11386 | 46.63870 | 35927 ft | 436 kts | 313° |
| 2026-05-05 18:08 | 54.15676 | 46.56560 | 35924 ft | 436 kts | 313° |
| 2026-05-05 18:09 | 54.19959 | 46.49237 | 35920 ft | 435 kts | 313° |
| 2026-05-05 18:09 | 54.24233 | 46.41907 | 35919 ft | 435 kts | 313° |
| 2026-05-05 18:10 | 54.28506 | 46.34578 | 35917 ft | 435 kts | 313° |
| 2026-05-05 18:10 | 54.32767 | 46.27223 | 35911 ft | 435 kts | 313° |
| 2026-05-05 18:11 | 54.37016 | 46.19855 | 35911 ft | 434 kts | 313° |
| 2026-05-05 18:11 | 54.41258 | 46.12470 | 35908 ft | 434 kts | 313° |
| 2026-05-05 18:12 | 54.45500 | 46.05075 | 35907 ft | 435 kts | 313° |
| 2026-05-05 18:12 | 54.49748 | 45.97674 | 35908 ft | 435 kts | 313° |
| 2026-05-05 18:13 | 54.53987 | 45.90242 | 35904 ft | 435 kts | 313° |
| 2026-05-05 18:13 | 54.58216 | 45.82796 | 35901 ft | 435 kts | 313° |
| 2026-05-05 18:14 | 54.62439 | 45.75347 | 35901 ft | 434 kts | 313° |
| 2026-05-05 18:14 | 54.66686 | 45.67825 | 35900 ft | 434 kts | 312° |
| 2026-05-05 18:15 | 54.70893 | 45.60342 | 35898 ft | 434 kts | 312° |
| 2026-05-05 18:15 | 54.75142 | 45.52918 | 35890 ft | 435 kts | 317° |
| 2026-05-05 18:16 | 54.80056 | 45.46765 | 35888 ft | 437 kts | 323° |
| 2026-05-05 18:16 | 54.85047 | 45.40758 | 35890 ft | 437 kts | 323° |
| 2026-05-05 18:17 | 54.90026 | 45.34720 | 35888 ft | 436 kts | 323° |
| 2026-05-05 18:17 | 54.94992 | 45.28669 | 35874 ft | 436 kts | 323° |
| 2026-05-05 18:18 | 54.99954 | 45.22602 | 35881 ft | 436 kts | 322° |
| 2026-05-05 18:18 | 55.04916 | 45.16536 | 35866 ft | 436 kts | 322° |
| 2026-05-05 18:19 | 55.09875 | 45.10461 | 35879 ft | 436 kts | 322° |
| 2026-05-05 18:19 | 55.14831 | 45.04369 | 35873 ft | 435 kts | 322° |
| 2026-05-05 18:20 | 55.19778 | 44.98265 | 35873 ft | 435 kts | 322° |
| 2026-05-05 18:20 | 55.24722 | 44.92147 | 35869 ft | 435 kts | 322° |
| 2026-05-05 18:21 | 55.29544 | 44.85769 | 35866 ft | 432 kts | 313° |
| 2026-05-05 18:21 | 55.33170 | 44.77502 | 35868 ft | 426 kts | 296° |
| 2026-05-05 18:22 | 55.35739 | 44.68076 | 35863 ft | 425 kts | 293° |
| 2026-05-05 18:22 | 55.38258 | 44.58671 | 35863 ft | 425 kts | 293° |
| 2026-05-05 18:23 | 55.40770 | 44.49270 | 35861 ft | 425 kts | 293° |
| 2026-05-05 18:23 | 55.43273 | 44.39854 | 35858 ft | 424 kts | 293° |
| 2026-05-05 18:24 | 55.45760 | 44.30437 | 35856 ft | 424 kts | 293° |
| 2026-05-05 18:24 | 55.48243 | 44.21029 | 35861 ft | 423 kts | 293° |
| 2026-05-05 18:25 | 55.50725 | 44.11610 | 35865 ft | 423 kts | 293° |
| 2026-05-05 18:25 | 55.53197 | 44.02184 | 35865 ft | 423 kts | 292° |
| 2026-05-05 18:26 | 55.55655 | 43.92745 | 35861 ft | 423 kts | 292° |
| 2026-05-05 18:26 | 55.58091 | 43.83286 | 35862 ft | 422 kts | 290° |
| 2026-05-05 18:27 | 55.59438 | 43.73297 | 35856 ft | 417 kts | 272° |
| 2026-05-05 18:27 | 55.59498 | 43.63049 | 35854 ft | 417 kts | 269° |
| 2026-05-05 18:28 | 55.59543 | 43.47672 | 35846 ft | 417 kts | 269° |
| 2026-05-05 18:28 | 55.59561 | 43.37419 | 35846 ft | 417 kts | 269° |
| 2026-05-05 18:29 | 55.59568 | 43.27104 | 35843 ft | 417 kts | 269° |
| 2026-05-05 18:29 | 55.59560 | 43.16854 | 35844 ft | 417 kts | 269° |
| 2026-05-05 18:30 | 55.59542 | 43.06610 | 35845 ft | 417 kts | 269° |
| 2026-05-05 18:30 | 55.59517 | 42.96358 | 35844 ft | 417 kts | 269° |
| 2026-05-05 18:31 | 55.59492 | 42.86116 | 35847 ft | 417 kts | 269° |
| 2026-05-05 18:31 | 55.59460 | 42.75877 | 35849 ft | 417 kts | 269° |
| 2026-05-05 18:32 | 55.59414 | 42.65628 | 35852 ft | 417 kts | 269° |
| 2026-05-05 18:32 | 55.59360 | 42.55377 | 35855 ft | 417 kts | 269° |
| 2026-05-05 18:33 | 55.59296 | 42.45133 | 35852 ft | 417 kts | 269° |
| 2026-05-05 18:33 | 55.59237 | 42.36616 | 35850 ft | 417 kts | 269° |
| 2026-05-05 18:34 | 55.59163 | 42.26301 | 35854 ft | 417 kts | 268° |
| 2026-05-05 18:34 | 55.59072 | 42.16058 | 35851 ft | 417 kts | 268° |
| 2026-05-05 18:35 | 55.58974 | 42.05814 | 35847 ft | 417 kts | 268° |
| 2026-05-05 18:35 | 55.58874 | 41.95570 | 35847 ft | 417 kts | 268° |
| 2026-05-05 18:36 | 55.58754 | 41.85330 | 35850 ft | 417 kts | 268° |
| 2026-05-05 18:36 | 55.58629 | 41.75084 | 35851 ft | 417 kts | 268° |
| 2026-05-05 18:37 | 55.58501 | 41.64834 | 35852 ft | 417 kts | 268° |
| 2026-05-05 18:37 | 55.58366 | 41.54590 | 35854 ft | 417 kts | 268° |
| 2026-05-05 18:38 | 55.58216 | 41.44343 | 35855 ft | 417 kts | 268° |
| 2026-05-05 18:38 | 55.58059 | 41.34098 | 35859 ft | 417 kts | 268° |
| 2026-05-05 18:39 | 55.57893 | 41.23859 | 35861 ft | 417 kts | 268° |
| 2026-05-05 18:39 | 55.57712 | 41.13620 | 35862 ft | 417 kts | 268° |
| 2026-05-05 18:40 | 55.57526 | 41.03387 | 35859 ft | 417 kts | 268° |
| 2026-05-05 18:40 | 55.57331 | 40.93147 | 35857 ft | 417 kts | 267° |
| 2026-05-05 18:41 | 55.57227 | 40.88029 | 35628 ft | 417 kts | 267° |
| 2026-05-05 18:41 | 55.57122 | 40.82915 | 35377 ft | 416 kts | 267° |
| 2026-05-05 18:41 | 55.57017 | 40.77811 | 35130 ft | 416 kts | 267° |
| 2026-05-05 18:41 | 55.56913 | 40.72697 | 34877 ft | 416 kts | 267° |
| 2026-05-05 18:42 | 55.56808 | 40.67590 | 34634 ft | 416 kts | 267° |
| 2026-05-05 18:42 | 55.56700 | 40.62476 | 34389 ft | 416 kts | 267° |
| 2026-05-05 18:42 | 55.56589 | 40.57374 | 34047 ft | 416 kts | 267° |
| 2026-05-05 18:42 | 55.56469 | 40.52171 | 33061 ft | 419 kts | 267° |
| 2026-05-05 18:43 | 55.56345 | 40.47024 | 32164 ft | 420 kts | 267° |
| 2026-05-05 18:43 | 55.56215 | 40.41855 | 31349 ft | 420 kts | 267° |
| 2026-05-05 18:43 | 55.56080 | 40.36752 | 30805 ft | 413 kts | 267° |
| 2026-05-05 18:43 | 55.55938 | 40.31713 | 30189 ft | 409 kts | 267° |
| 2026-05-05 18:44 | 55.55793 | 40.26711 | 29530 ft | 406 kts | 267° |
| 2026-05-05 18:44 | 55.55650 | 40.21772 | 28924 ft | 400 kts | 267° |
| 2026-05-05 18:44 | 55.55508 | 40.16888 | 28347 ft | 395 kts | 267° |
| 2026-05-05 18:44 | 55.55365 | 40.12071 | 27759 ft | 391 kts | 267° |
| 2026-05-05 18:45 | 55.55220 | 40.07297 | 27189 ft | 387 kts | 267° |
| 2026-05-05 18:45 | 55.55077 | 40.02584 | 26766 ft | 380 kts | 266° |
| 2026-05-05 18:45 | 55.54718 | 39.98030 | 26788 ft | 375 kts | 258° |
| 2026-05-05 18:45 | 55.54074 | 39.93542 | 26120 ft | 378 kts | 256° |
| 2026-05-05 18:46 | 55.53398 | 39.89103 | 25715 ft | 371 kts | 256° |
| 2026-05-05 18:46 | 55.52717 | 39.84725 | 25184 ft | 369 kts | 255° |
| 2026-05-05 18:46 | 55.52038 | 39.80371 | 24674 ft | 366 kts | 255° |
| 2026-05-05 18:46 | 55.51368 | 39.76053 | 24183 ft | 364 kts | 255° |
| 2026-05-05 18:47 | 55.50703 | 39.71764 | 23703 ft | 361 kts | 255° |
| 2026-05-05 18:47 | 55.50041 | 39.67509 | 23158 ft | 356 kts | 255° |
| 2026-05-05 18:47 | 55.49388 | 39.63327 | 22243 ft | 351 kts | 255° |
| 2026-05-05 18:47 | 55.48744 | 39.59198 | 21713 ft | 349 kts | 255° |
| 2026-05-05 18:48 | 55.48101 | 39.55080 | 21200 ft | 347 kts | 255° |
| 2026-05-05 18:48 | 55.47462 | 39.50988 | 20689 ft | 346 kts | 255° |
| 2026-05-05 18:48 | 55.46820 | 39.46916 | 20184 ft | 344 kts | 255° |
| 2026-05-05 18:48 | 55.46178 | 39.42859 | 19670 ft | 343 kts | 255° |
| 2026-05-05 18:49 | 55.45538 | 39.38811 | 19166 ft | 342 kts | 255° |
| 2026-05-05 18:49 | 55.44902 | 39.34790 | 18725 ft | 340 kts | 255° |
| 2026-05-05 18:49 | 55.44268 | 39.30788 | 18281 ft | 338 kts | 255° |
| 2026-05-05 18:49 | 55.43627 | 39.26740 | 17741 ft | 337 kts | 255° |
| 2026-05-05 18:50 | 55.43000 | 39.22799 | 17297 ft | 330 kts | 255° |
| 2026-05-05 18:50 | 55.42384 | 39.18944 | 16656 ft | 327 kts | 255° |
| 2026-05-05 18:50 | 55.41770 | 39.15098 | 16147 ft | 326 kts | 255° |
| 2026-05-05 18:50 | 55.41153 | 39.11252 | 15680 ft | 326 kts | 255° |
| 2026-05-05 18:51 | 55.40537 | 39.07424 | 15262 ft | 324 kts | 255° |
| 2026-05-05 18:51 | 55.39923 | 39.03620 | 14798 ft | 323 kts | 255° |
| 2026-05-05 18:51 | 55.39313 | 38.99841 | 14345 ft | 322 kts | 255° |
| 2026-05-05 18:51 | 55.38708 | 38.96097 | 13799 ft | 314 kts | 255° |
| 2026-05-05 18:52 | 55.38108 | 38.92391 | 13282 ft | 316 kts | 255° |
| 2026-05-05 18:52 | 55.37510 | 38.88713 | 12859 ft | 312 kts | 255° |
| 2026-05-05 18:52 | 55.36912 | 38.85038 | 12438 ft | 310 kts | 255° |
| 2026-05-05 18:52 | 55.36320 | 38.81403 | 11971 ft | 308 kts | 255° |
| 2026-05-05 18:53 | 55.35730 | 38.77802 | 11496 ft | 307 kts | 254° |
| 2026-05-05 18:53 | 55.35143 | 38.74226 | 11109 ft | 303 kts | 254° |
| 2026-05-05 18:53 | 55.34560 | 38.70672 | 10691 ft | 300 kts | 254° |
| 2026-05-05 18:53 | 55.33984 | 38.67154 | 10244 ft | 299 kts | 254° |
| 2026-05-05 18:54 | 55.33418 | 38.63715 | 10099 ft | 287 kts | 254° |
| 2026-05-05 18:54 | 55.32872 | 38.60412 | 9969 ft | 276 kts | 254° |
| 2026-05-05 18:54 | 55.32341 | 38.57209 | 9681 ft | 271 kts | 254° |
| 2026-05-05 18:54 | 55.31814 | 38.54026 | 9264 ft | 270 kts | 254° |
| 2026-05-05 18:55 | 55.31283 | 38.50834 | 8749 ft | 273 kts | 253° |
| 2026-05-05 18:55 | 55.30757 | 38.47683 | 8373 ft | 266 kts | 253° |
| 2026-05-05 18:55 | 55.30237 | 38.44575 | 7642 ft | 265 kts | 253° |
| 2026-05-05 18:55 | 55.29719 | 38.41482 | 6978 ft | 263 kts | 253° |
| 2026-05-05 18:56 | 55.29206 | 38.38420 | 6418 ft | 260 kts | 253° |
| 2026-05-05 18:56 | 55.28697 | 38.35374 | 5862 ft | 260 kts | 253° |
| 2026-05-05 18:56 | 55.28185 | 38.32318 | 5326 ft | 263 kts | 253° |
| 2026-05-05 18:56 | 55.27662 | 38.29223 | 4810 ft | 265 kts | 252° |
| 2026-05-05 18:57 | 55.27141 | 38.26145 | 4519 ft | 257 kts | 253° |
| 2026-05-05 18:57 | 55.26642 | 38.23198 | 4455 ft | 241 kts | 252° |
| 2026-05-05 18:57 | 55.26178 | 38.20464 | 4402 ft | 226 kts | 252° |
| 2026-05-05 18:57 | 55.25743 | 38.17896 | 4310 ft | 214 kts | 252° |
| 2026-05-05 18:58 | 55.25334 | 38.15460 | 4231 ft | 203 kts | 253° |
| 2026-05-05 18:58 | 55.24946 | 38.13142 | 4150 ft | 194 kts | 254° |
| 2026-05-05 18:58 | 55.24809 | 38.10809 | 4029 ft | 194 kts | 274° |
| 2026-05-05 18:58 | 55.25156 | 38.08529 | 3871 ft | 195 kts | 295° |
| 2026-05-05 18:59 | 55.25961 | 38.06611 | 3679 ft | 198 kts | 316° |
| 2026-05-05 18:59 | 55.27080 | 38.05198 | 3442 ft | 199 kts | 324° |
| 2026-05-05 18:59 | 55.28225 | 38.03838 | 3189 ft | 199 kts | 324° |
| 2026-05-05 18:59 | 55.29369 | 38.02477 | 2931 ft | 199 kts | 324° |
| 2026-05-05 19:00 | 55.30511 | 38.01114 | 2673 ft | 199 kts | 324° |
| 2026-05-05 19:00 | 55.31652 | 37.99750 | 2431 ft | 197 kts | 325° |
| 2026-05-05 19:00 | 55.32773 | 37.98411 | 2167 ft | 192 kts | 325° |
| 2026-05-05 19:00 | 55.33840 | 37.97135 | 1904 ft | 180 kts | 325° |
| 2026-05-05 19:01 | 55.34841 | 37.95937 | 1675 ft | 168 kts | 325° |
| 2026-05-05 19:01 | 55.35762 | 37.94834 | 1488 ft | 152 kts | 326° |
| 2026-05-05 19:01 | 55.36611 | 37.93817 | 1275 ft | 145 kts | 325° |
| 2026-05-05 19:01 | 55.37435 | 37.92828 | 1081 ft | 143 kts | 325° |
| 2026-05-05 19:02 | 55.38252 | 37.91847 | 880 ft | 142 kts | 324° |
| 2026-05-05 19:02 | 55.39072 | 37.90862 | 682 ft | 142 kts | 325° |
| 2026-05-05 19:02 | 55.39884 | 37.89890 | 553 ft | 136 kts | 324° |
| 2026-05-05 19:02 | 55.40535 | 37.89098 | 571 ft | 89 kts | 326° |
| 2026-05-05 19:03 | 55.40913 | 37.88647 | 576 ft | 52 kts | 325° |
| 2026-05-05 19:03 | 55.41134 | 37.88405 | 579 ft | 26 kts | 341° |
| 2026-05-05 19:03 | 55.41292 | 37.88356 | 582 ft | 20 kts | 355° |
| 2026-05-05 19:03 | 55.41370 | 37.88351 | 583 ft | 9 kts | 20° |
| 2026-05-05 19:04 | 55.41371 | 37.88466 | 580 ft | 12 kts | 133° |
| 2026-05-05 19:04 | 55.41296 | 37.88554 | 579 ft | 14 kts | 145° |
| 2026-05-05 19:04 | 55.41207 | 37.88662 | 578 ft | 17 kts | 145° |
| 2026-05-05 19:04 | 55.41100 | 37.88789 | 577 ft | 20 kts | 145° |
| 2026-05-05 19:05 | 55.41009 | 37.88899 | 579 ft | 17 kts | 145° |
| 2026-05-05 19:05 | 55.40908 | 37.89021 | 575 ft | 16 kts | 146° |
| 2026-05-05 19:05 | 55.40846 | 37.89095 | 573 ft | 16 kts | 146° |
| 2026-05-05 19:05 | 55.40791 | 37.89196 | 572 ft | 12 kts | 114° |
| 2026-05-05 19:06 | 55.40786 | 37.89350 | 571 ft | 13 kts | 78° |
| 2026-05-05 19:06 | 55.40827 | 37.89479 | 570 ft | 10 kts | 56° |
| 2026-05-05 19:06 | 55.40870 | 37.89555 | 575 ft | 8 kts | 39° |
| 2026-05-05 19:06 | 55.40901 | 37.89632 | 570 ft | 8 kts | 56° |
| 2026-05-05 19:07 | 55.40931 | 37.89708 | 570 ft | 7 kts | 55° |
| 2026-05-05 19:07 | 55.40959 | 37.89782 | 573 ft | 8 kts | 54° |
| 2026-05-05 19:07 | 55.40992 | 37.89856 | 569 ft | 7 kts | 38° |
| 2026-05-05 19:07 | 55.41031 | 37.89850 | 571 ft | 6 kts | 332° |
| 2026-05-05 19:08 | 55.41061 | 37.89816 | 575 ft | 2 kts | 326° |
| 2026-05-05 19:08 | 55.41073 | 37.89802 | 573 ft | 2 kts | 326° |
| 2026-05-05 19:08 | 55.41087 | 37.89785 | 574 ft | 4 kts | 325° |
| 2026-05-05 19:08 | 55.41120 | 37.89768 | 576 ft | 7 kts | 27° |
| 2026-05-05 19:09 | 55.41150 | 37.89844 | 577 ft | 7 kts | 91° |
| 2026-05-05 19:09 | 55.41168 | 37.89910 | 572 ft | 4 kts | 43° |
| 2026-05-05 19:09 | 55.41176 | 37.89921 | 572 ft | 0 kts | 38° |